Houlton, ME

11:18 AM EDT on May 28, 2015 (GMT -0400)
Houlton International | | Change Station
CLOSE
Current Station
Airport
Location: Houlton,
Elevation: 492 ft
Nearby Weather Stations

Elev 492 ft 46.12 °N, 67.79 °W | Updated 25 minutes ago

Scattered Clouds
Scattered Clouds
75 °F
Feels Like 75 °F
N
10
Wind Variable Wind from WSW

Today
High -- | Low -- °F
--% Chance of Precip.
Yesterday
High -- | Low -- °F
Precip. -- in
4:46 AM 8:11 PM
Waxing Gibbous, 76% visible
Pressure 30.00 in
Visibility 10.0 miles
Clouds Scattered Clouds 11000 ft
Dew Point 65 °F
Humidity 71%
Rainfall 0.00 in
Snow Depth Not available.
UV 8 out of 12
Pollen 7.20 out of 12
Air Quality Not available.
Flu Activity Local Activity
METAR KHUL 281453Z AUTO 24009KT 10SM SCT110 24/18 A3000 RMK AO2 SLP158 T02390183 51001

More Conditions Fewer Conditions

Pressure 30.00 in
Visibility 10.0 miles
Clouds Scattered Clouds 11000 ft
Dew Point 65 °F
Humidity 71%
Rainfall 0.00 in
Snow Depth Not available.
UV 8 out of 12
Pollen 7.20 out of 12
Air Quality Not available.
Flu Activity Local Activity
METAR KHUL 281453Z AUTO 24009KT 10SM SCT110 24/18 A3000 RMK AO2 SLP158 T02390183 51001

More Conditions Fewer Conditions

10-Day Weather Forecast

Almanac

Astronomy

May. 28, 2015 Rise Set
Actual Time
Civil Twilight
Nautical Twilight
Astronomical Twilight
Moon
Length of Visible Light
Length of Day
Tomorrow will be .
, % of the Moon is Illuminated

Today's Extremes

State Highs State Lows

Community

WunderPhotos

Upload Photos

1,824,996 photos uploaded!

WunderBlogs® & News

Nearby

Air Quality

  Air Quality AQ Index Pollutant
Not available.

Snow Depth

Station Depth Elevation

Earthquake Activity

City Distance Mag. Time & Date
Minimum magnitude displayed is 2.5.

Coastal Water Temperatures

Place Temperature

Stations

Nearby Weather Stations

Station Location Temp. Windchill Dew Point Humidity Wind Precip. Elev Updated Type